Latest Coastal Weather Observations for Edithburgh

IDS60701

Issued at 3:11 am CST Monday 20 April 2015 (issued every 10 minutes, with the page automatically refreshed every 10 minutes)

About coastal observations | Map of coastal stations | Coastal observations for SA | Marine services | Other Formats
Station Details ID: 022046 Name: EDITHBURGH Lat: -35.11 Lon: 137.74 Height: 6.0 m
Data from the previous 72 hours. | See also: Recent months at Edithburgh
Date/Time
CST
Temp

°C
Wind Pressure Rain
since 9am
mm
Weather Cloud Vis
km
Sea
Height
m
Swell
Dir
 
Speed
knots
Gust
knots
hPa Trend Height
m
Period
s
Dir
20/03:00am 12.8 E 11 15 1037.3 - 0.0 - - - - - - -
20/02:30am 13.1 E 13 18 1037.3 - 0.0 - - - - - - -
20/02:00am 13.4 E 12 15 1037.5 - 0.0 - - - - - - -
20/01:30am 13.7 ESE 12 17 1037.2 - 0.0 - - - - - - -
20/01:00am 13.7 ESE 11 14 1037.2 - 0.0 - - - - - - -
20/12:30am 13.5 SE 11 17 1037.2 - 0.0 - - - - - - -
20/12:00am 13.5 SE 11 16 1037.2 - 0.0 - - - - - - -
 
Date/Time
CST
Temp

°C
Wind Pressure Rain
since 9am
mm
Weather Cloud Vis
km
Sea
Height
m
Swell
Dir
 
Speed
knots
Gust
knots
hPa Trend Height
m
Period
s
Dir
19/11:30pm 13.8 SE 13 19 1037.3 - 0.0 - - - - - - -
19/11:00pm 13.9 SE 12 17 1037.4 - 0.0 - - - - - - -
19/10:30pm 13.9 SE 14 17 1037.4 - 0.0 - - - - - - -
19/10:00pm 14.1 SE 13 17 1037.3 - 0.0 - - - - - - -
19/09:30pm 14.1 SE 12 20 1037.1 - 0.0 - - - - - - -
19/09:00pm 13.7 SSE 12 17 1036.9 - 0.0 - - - - - - -
19/08:30pm 13.5 SSE 12 16 1036.7 - 0.0 - - - - - - -
19/08:00pm 13.7 SSE 13 17 1036.3 - 0.0 - - - - - - -
19/07:30pm 13.8 SSE 13 17 1036.1 - 0.0 - - - - - - -
19/07:00pm 13.9 SSE 14 19 1035.8 - 0.0 - - - - - - -
19/06:30pm 13.9 SSE 13 17 1035.4 - 0.0 - - - - - - -
19/06:00pm 13.8 SSE 13 18 1035.1 - 0.0 - - - - - - -
19/05:30pm 13.9 SE 13 19 1034.7 - 0.0 - - - - - - -
19/05:00pm 14.3 SE 16 19 1034.4 - 0.0 - - - - - - -
19/04:30pm 14.4 SSE 15 20 1034.3 - 0.0 - - - - - - -
19/04:00pm 14.8 SSE 13 18 1034.3 - 0.0 - - - - - - -
19/03:30pm 15.9 SSE 14 19 1034.1 - 0.0 - - - - - - -
19/03:00pm 15.6 SSE 15 20 1033.9 - 0.0 - - - - - - -
19/02:30pm 15.8 SSE 15 19 1033.7 - 0.0 - - - - - - -
19/02:00pm 15.8 SSE 15 19 1033.5 - 0.0 - - - - - - -
19/01:30pm 16.7 SSE 14 20 1033.7 - 0.0 - - - - - - -
19/01:00pm 16.0 SSE 15 19 1033.5 - 0.0 - - - - - - -
19/12:30pm 15.2 SSE 14 19 1033.8 - 0.0 - - - - - - -
19/12:00pm 16.0 SSE 14 18 1033.8 - 0.0 - - - - - - -
19/11:30am 15.1 SSE 14 18 1033.9 - 0.0 - - - - - - -
19/11:00am 15.3 SSE 15 21 1033.7 - 0.0 - - - - - - -
19/10:30am 15.5 SSE 14 19 1033.5 - 0.0 - - - - - - -
19/10:00am 15.6 S 16 21 1033.3 - 0.0 - - - - - - -
19/09:30am 14.3 SSE 18 25 1033.3 - 0.0 - - - - - - -
19/09:00am 14.8 S 15 21 1032.9 - 2.0 - - - - - - -
19/08:30am 14.3 SSE 17 24 1032.4 - 2.0 - - - - - - -
19/08:00am 13.8 S 15 21 1031.6 - 2.0 - - - - - - -
19/07:30am 13.3 SSE 18 21 1030.9 - 2.0 - - - - - - -
19/07:00am 12.7 SSE 15 20 1030.2 - 2.0 - - - - - - -
19/06:30am 12.5 S 17 23 1029.6 - 2.0 - - - - - - -
19/06:00am 13.0 S 15 21 1029.2 - 2.0 - - - - - - -
19/05:30am 12.6 S 15 21 1028.8 - 2.0 - - - - - - -
19/05:00am 12.9 S 17 22 1028.2 - 2.0 - - - - - - -
19/04:30am 12.9 SSW 16 20 1027.7 - 2.0 - - - - - - -
19/04:00am 12.8 S 14 19 1027.3 - 2.0 - - - - - - -
19/03:30am 12.9 SSW 15 20 1027.1 - 2.0 - - - - - - -
19/03:00am 13.0 S 16 22 1026.9 - 2.0 - - - - - - -
19/02:30am 12.6 SSW 16 19 1027.0 - 2.0 - - - - - - -
19/02:00am 12.7 SSW 14 19 1026.7 - 2.0 - - - - - - -
19/01:30am 12.7 SSW 15 19 1026.7 - 2.0 - - - - - - -
19/01:00am 12.8 SSW 14 19 1026.3 - 2.0 - - - - - - -
19/12:30am 13.3 SSW 15 21 1026.0 - 2.0 - - - - - - -
19/12:00am 13.0 SSW 14 17 1025.8 - 2.0 - - - - - - -
 
Date/Time
CST
Temp

°C
Wind Pressure Rain
since 9am
mm
Weather Cloud Vis
km
Sea
Height
m
Swell
Dir
 
Speed
knots
Gust
knots
hPa Trend Height
m
Period
s
Dir
18/11:30pm 13.2 SSW 15 20 1025.5 - 2.0 - - - - - - -
18/11:00pm 13.2 SSW 14 18 1025.3 - 2.0 - - - - - - -
18/10:30pm 13.3 SSW 17 21 1025.1 - 2.0 - - - - - - -
18/10:00pm 13.6 SSW 15 19 1024.7 - 2.0 - - - - - - -
18/09:30pm 13.4 SSW 14 19 1024.3 - 2.0 - - - - - - -
18/09:00pm 13.9 SSW 15 23 1023.7 - 2.0 - - - - - - -
18/08:30pm 13.8 SSW 16 22 1023.2 - 2.0 - - - - - - -
18/08:00pm 14.0 SSW 17 22 1022.6 - 2.0 - - - - - - -
18/07:30pm 14.4 SSW 17 23 1022.1 - 2.0 - - - - - - -
18/07:00pm 14.3 SSW 17 21 1021.5 - 2.0 - - - - - - -
18/06:30pm 14.5 SSW 17 21 1020.6 - 2.0 - - - - - - -
18/06:00pm 14.1 SSW 15 21 1020.0 - 2.0 Recent precip. - - - - - -
18/05:30pm 14.4 SSW 14 21 1019.7 - 2.0 - - - - - - -
18/05:00pm 13.6 SW 12 16 1019.3 - 1.8 - - - - - - -
18/04:30pm 13.7 SSW 14 19 1019.0 - 1.8 - - - - - - -
18/04:00pm 13.8 SW 15 21 1018.6 - 1.6 - - - - - - -
18/03:30pm 14.2 SSW 18 25 1018.1 - 1.6 - - - - - - -
18/03:00pm 15.0 SSW 19 25 1017.3 - 1.6 Recent precip. - - - - - -
18/02:30pm 15.1 SSW 15 22 1016.9 - 1.6 - - - - - - -
18/02:00pm 17.3 WNW 13 19 1016.4 - 1.4 - - - - - - -
18/01:30pm 18.7 WNW 15 21 1015.9 - 0.6 - - - - - - -
18/01:00pm 18.5 WNW 17 24 1016.3 - 0.2 - - - - - - -
18/12:30pm 18.9 NW 17 21 1016.3 - 0.0 - - - - - - -
18/12:00pm 18.5 NW 16 21 1016.7 - 0.0 - - - - - - -
18/11:30am 18.8 NW 16 22 1017.0 - 0.0 - - - - - - -
18/11:00am 17.5 NW 17 22 1017.2 - 0.0 - - - - - - -
18/10:30am 17.4 NW 14 20 1017.3 - 0.0 - - - - - - -
18/10:00am 16.9 NW 16 21 1017.3 - 0.0 - - - - - - -
18/09:30am 16.3 NW 14 18 1017.6 - 0.0 - - - - - - -
18/09:00am 15.4 WNW 11 15 1017.7 - 4.0 - - - - - - -
18/08:30am 15.6 NNW 8 10 1017.5 - 4.0 - - - - - - -
18/08:00am 13.8 NW 7 9 1017.3 - 4.0 - - - - - - -
18/07:30am 12.6 NW 6 8 1016.9 - 4.0 - - - - - - -
18/07:00am 10.9 NNW 5 6 1016.6 - 4.0 - - - - - - -
18/06:30am 9.6 NW 6 6 1016.7 - 4.0 - - - - - - -
18/06:00am 8.2 NNW 4 5 1016.5 - 4.0 Recent precip. - - - - - -
18/05:30am 8.7 NW 6 6 1016.5 - 3.8 - - - - - - -
18/05:00am 8.8 NW 6 6 1016.4 - 3.8 - - - - - - -
18/04:30am 9.5 NW 6 7 1016.2 - 3.8 - - - - - - -
18/04:00am 10.6 WNW 7 8 1016.1 - 3.8 - - - - - - -
18/03:30am 10.7 WNW 6 7 1016.0 - 3.8 - - - - - - -
18/03:00am 12.0 WNW 6 8 1016.1 - 3.8 - - - - - - -
18/02:30am 13.6 WNW 8 9 1016.2 - 3.8 - - - - - - -
18/02:00am 14.0 WNW 7 11 1016.5 - 3.8 - - - - - - -
18/01:30am 14.5 WNW 5 7 1016.6 - 3.8 - - - - - - -
18/01:00am 14.4 W 5 6 1016.7 - 3.8 - - - - - - -
18/12:30am 14.8 WNW 4 5 1016.7 - 3.8 - - - - - - -
18/12:00am 14.9 WSW 4 5 1017.0 - 3.8 - - - - - - -
 
Date/Time
CST
Temp

°C
Wind Pressure Rain
since 9am
mm
Weather Cloud Vis
km
Sea
Height
m
Swell
Dir
 
Speed
knots
Gust
knots
hPa Trend Height
m
Period
s
Dir
17/11:30pm 14.7 SW 4 5 1017.2 - 3.8 - - - - - - -
17/11:00pm 14.6 SW 4 5 1017.4 - 3.8 - - - - - - -
17/10:30pm 14.7 SW 7 10 1017.8 - 3.8 - - - - - - -
17/10:00pm 14.9 SW 4 6 1017.9 - 3.8 - - - - - - -
17/09:30pm 14.8 SW 4 5 1017.8 - 3.8 - - - - - - -
17/09:00pm 14.8 SW 4 6 1017.7 - 3.8 - - - - - - -
17/08:30pm 14.7 S 3 4 1017.4 - 3.8 - - - - - - -
17/08:00pm 14.8 S 5 7 1017.4 - 3.8 - - - - - - -
17/07:30pm 14.8 SSE 8 11 1017.2 - 3.8 - - - - - - -
17/07:00pm 14.6 S 8 11 1017.0 - 3.8 - - - - - - -
17/06:30pm 14.4 S 7 9 1016.9 - 3.8 - - - - - - -
17/06:00pm 14.5 SW 6 8 1016.9 - 3.2 Rain - - - - - -
17/05:30pm 14.8 SW 3 4 1016.5 - 2.8 - - - - - - -
17/05:00pm 14.7 S 4 5 1016.2 - 2.8 - - - - - - -
17/04:30pm 14.7 SE 5 6 1016.2 - 2.8 - - - - - - -
17/04:00pm 14.6 SE 6 7 1016.2 - 2.8 - - - - - - -
17/03:30pm 14.6 ESE 8 11 1016.0 - 2.8 - - - - - - -
17/03:00pm 14.5 ESE 8 12 1015.9 - 2.8 Recent precip. - - - - - -
17/02:30pm 13.9 ESE 9 13 1016.1 - 1.6 - - - - - - -
17/02:00pm 14.7 ESE 9 12 1016.8 - 0.0 - - - - - - -
17/01:30pm 14.9 ESE 10 14 1017.3 - 0.0 - - - - - - -
17/01:00pm 14.8 SE 11 14 1017.7 - 0.0 - - - - - - -
17/12:30pm 14.9 SE 13 16 1018.2 - 0.0 - - - - - - -
17/12:00pm 15.0 SE 12 15 1018.8 - 0.0 - - - - - - -
17/11:30am 15.2 SE 13 17 1019.2 - 0.0 - - - - - - -
17/11:00am 14.9 SE 13 18 1019.6 - 0.0 - - - - - - -
17/10:30am 14.3 SE 13 17 1020.1 - 0.0 - - - - - - -
17/10:00am 14.3 ESE 15 19 1020.3 - 0.0 - - - - - - -
17/09:30am 14.0 ESE 15 19 1020.6 - 0.0 - - - - - - -
17/09:00am 14.4 ESE 14 19 1020.8 - 14.8 - - - - - - -
17/08:30am 14.7 ESE 14 19 1020.8 - 14.8 - - - - - - -
17/08:00am 15.0 ESE 12 18 1020.7 - 14.8 - - - - - - -
17/07:30am 14.9 SE 13 18 1020.6 - 14.8 - - - - - - -
17/07:00am 14.7 SE 10 15 1020.3 - 14.8 - - - - - - -
17/06:30am 14.4 SE 14 18 1020.3 - 14.8 - - - - - - -
17/06:00am 14.5 SE 10 14 1020.3 - 14.6 Rain - - - - - -
17/05:30am 14.8 ESE 8 11 1020.4 - 14.4 - - - - - - -
17/05:00am 15.0 ESE 7 10 1020.9 - 14.4 - - - - - - -
17/04:30am 14.8 ESE 8 10 1020.8 - 14.4 - - - - - - -
17/04:00am 14.7 ESE 8 10 1020.8 - 14.4 - - - - - - -
17/03:30am 14.5 ESE 9 11 1021.0 - 14.4 - - - - - - -

Other Formats:

Comma delimited format used in spreadsheet applications
http://www.bom.gov.au/fwo/IDS60701/IDS60701.94809.axf

JavaScript Object Notation format (JSON) in row-major order
http://www.bom.gov.au/fwo/IDS60701/IDS60701.94809.json